Aviation Digital Data Service (ADDS)

Output produced by METARs form (0326 UTC 21 September 2017)
found at http://www.aviationweather.gov/adds/metars/
 
ENAT 210250Z AUTO 14006KT 9999 NCD 02/M02 Q1032 RMK WIND 700FT 17015KT
TAF ENAT 210200Z 2104/2112 16009KT 9999 SCT030
       
ENAN 210320Z 19009KT CAVOK 04/M01 Q1027
TAF ENAN 2100/2124 14015KT CAVOK
       
ENML 210320Z AUTO 03009KT 9999NDV NCD 06/02 Q1016
ENNA 210320Z AUTO 19010KT 9999 NCD 03/M01 Q1032 RMK WIND 1800FT 21020KT
TAF ENNA 2100/2124 18008KT 9999 SCT025 
     TEMPO 2100/2124 18018KT
       
ENDU 210320Z VRB01KT 9999 FEW035 M03/M03 Q1029 RMK WIND 1100FT 10006KT WIND 2200FT 13014KT
TAF ENDU 2100/2124 13008KT CAVOK 
     PROB30 
     TEMPO 2100/2106 1200 PRFG
       
ENBR 210320Z 15010KT 9999 VCSH FEW015 BKN040 11/09 Q1014 RMK WIND 1200FT 13026KT
TAF ENBR 2100/2124 15010KT 9999 -RA FEW010 SCT025 BKN040 
     TEMPO 2104/2121 15015G25KT 
     TEMPO 2121/2124 16020G30KT
       
ENBO 210250Z 10020KT CAVOK 08/02 Q1025
TAF ENBO 2100/2124 10018KT CAVOK 
     TEMPO 2100/2112 12020G35KT
       
ENBN 210320Z AUTO 11020KT 9999NDV NCD 08/03 Q1021
ENEV 210320Z AUTO 17005KT 110V230 9999 NCD 05/M00 Q1028 RMK WIND 1400FT 15016KT
TAF ENEV 210200Z 2104/2112 15009KT CAVOK
       
ENFL 210320Z 12013KT 9999 FEW035 SCT060 13/06 Q1014
ENHD 210320Z AUTO 14013KT 9999 FEW036/// OVC045/// 12/09 Q1015
TAF ENHD 210200Z 2104/2112 13015KT 9999 -RA FEW012 BKN035 
     PROB40 
     TEMPO 2106/2112 17020G30KT 4000 RADZ BR BKN012
       
ENKR 210320Z 19005KT 9999 BKN028 04/M00 Q1035 RMK WIND 731FT 21010KT
TAF ENKR 210200Z 2103/2112 21008KT 9999 FEW015 BKN025
       
ENCN 210320Z AUTO 07011KT 5000 -RA ///024/// 11/10 Q1019 REDZ
TAF ENCN 210200Z 2105/2112 05010KT 9000 -RA BKN018 
     TEMPO 2105/2112 4000 DZRA BKN006 
     BECMG 2107/2109 11012KT
       
ENKB 210320Z AUTO 08005KT 050V140 9999 NCD 09/04 Q1015 RMK WIND 745FT 14015KT
TAF ENKB 210200Z 2104/2112 12007KT CAVOK
       
ENOL 210250Z 13019KT CAVOK 10/03 Q1016
TAF ENOL 2100/2124 14018KT CAVOK
       
ENGM 210320Z VRB01KT CAVOK 06/05 Q1021
TAF ENGM 2100/2124 06005KT 9999 FEW020 BKN040 
     PROB30 2103/2108 2000 BCFG BKN003
       
ENRO 210320Z AUTO VRB03KT 9999NDV OVC016/// 04/02 Q1019
TAF ENRO 210200Z 2105/2112 13008KT 9999 SCT012 BKN030 
     PROB30 
     TEMPO 2105/2112 18018KT BKN012
       
ENRY 210320Z AUTO 02004KT 9999NDV OVC048/// 08/07 Q1021
TAF ENRY 2100/2124 08007KT 9999 SCT030 BKN060
       
ENSG 210320Z 04006KT 010V110 9999 FEW015 BKN037 07/03 Q1017 RMK WIND 3806FT 10013KT
ENZV 210250Z 15006KT 9999 -DZ FEW020 BKN045 11/09 Q1016
TAF ENZV 2100/2124 15010KT 9999 -RA FEW020 SCT030 BKN040 
     TEMPO 2106/2118 15015G25KT 
     TEMPO 2118/2124 14020G30KT
       
ENST 210320Z VRB06KT 9999 FEW040 08/00 Q1021 RMK WIND 300FT 12017G29KT TURB WRNG - SEE IPPC
ENTO 210320Z AUTO 01005KT 9999 OVC047/// 07/07 Q1021
TAF ENTO 2100/2124 06005KT 9999 SCT015 BKN040 
     PROB30 
     TEMPO 2100/2102 RA BKN012 
     PROB30 2102/2107 2000 BCFG BKN003
       
ENTC 210320Z 19013KT CAVOK 06/M02 Q1028 RMK WIND 2600FT 19024KT
TAF ENTC 2100/2124 19015KT CAVOK
       
ENVA 210320Z 08009KT 050V110 CAVOK 09/02 Q1019 RMK WIND 670FT 15018KT
TAF ENVA 2100/2124 11010KT CAVOK 
     TEMPO 2100/2124 15015G27KT
       
ENAL 210320Z AUTO 12013KT 9999 FEW064/// 12/04 Q1014
TAF ENAL 210200Z 2104/2112 13012KT CAVOK